sensor_id;sensor_type;location;lat;lon;timestamp;temperature;humidity
37956;DHT22;23776;51.592;7.180;2023-02-28T00:01:04;1.30;99.90
37956;DHT22;23776;51.592;7.180;2023-02-28T00:03:30;1.30;99.90
37956;DHT22;23776;51.592;7.180;2023-02-28T00:05:55;1.30;99.90
37956;DHT22;23776;51.592;7.180;2023-02-28T00:08:21;1.30;1.00
37956;DHT22;23776;51.592;7.180;2023-02-28T00:10:46;1.20;1.00
37956;DHT22;23776;51.592;7.180;2023-02-28T00:13:12;1.20;99.90
37956;DHT22;23776;51.592;7.180;2023-02-28T00:15:38;1.20;99.90
37956;DHT22;23776;51.592;7.180;2023-02-28T00:18:04;1.20;99.90
37956;DHT22;23776;51.592;7.180;2023-02-28T00:20:29;1.20;99.90
37956;DHT22;23776;51.592;7.180;2023-02-28T00:22:55;1.20;1.00
37956;DHT22;23776;51.592;7.180;2023-02-28T00:25:24;1.20;1.00
37956;DHT22;23776;51.592;7.180;2023-02-28T00:27:50;1.20;99.90
37956;DHT22;23776;51.592;7.180;2023-02-28T00:30:18;1.20;99.90
37956;DHT22;23776;51.592;7.180;2023-02-28T00:32:44;1.10;99.90
37956;DHT22;23776;51.592;7.180;2023-02-28T00:35:11;1.10;99.90
37956;DHT22;23776;51.592;7.180;2023-02-28T00:37:37;1.10;99.90
37956;DHT22;23776;51.592;7.180;2023-02-28T00:40:04;1.10;99.90
37956;DHT22;23776;51.592;7.180;2023-02-28T00:42:31;1.10;99.90
37956;DHT22;23776;51.592;7.180;2023-02-28T00:44:57;1.00;1.00
37956;DHT22;23776;51.592;7.180;2023-02-28T00:47:22;1.00;1.00
37956;DHT22;23776;51.592;7.180;2023-02-28T00:49:48;0.90;1.00
37956;DHT22;23776;51.592;7.180;2023-02-28T00:52:13;1.00;99.90
37956;DHT22;23776;51.592;7.180;2023-02-28T00:54:39;1.00;99.90
37956;DHT22;23776;51.592;7.180;2023-02-28T00:57:04;1.00;99.90
37956;DHT22;23776;51.592;7.180;2023-02-28T00:59:30;1.00;99.90
37956;DHT22;23776;51.592;7.180;2023-02-28T01:01:55;1.00;99.90
37956;DHT22;23776;51.592;7.180;2023-02-28T01:04:21;0.90;99.90
37956;DHT22;23776;51.592;7.180;2023-02-28T01:06:47;0.90;99.90
37956;DHT22;23776;51.592;7.180;2023-02-28T01:09:13;0.90;99.90
37956;DHT22;23776;51.592;7.180;2023-02-28T01:11:39;0.80;99.90
37956;DHT22;23776;51.592;7.180;2023-02-28T01:14:07;0.90;99.90
37956;DHT22;23776;51.592;7.180;2023-02-28T01:16:33;0.90;99.90
37956;DHT22;23776;51.592;7.180;2023-02-28T01:18:59;0.90;99.90
37956;DHT22;23776;51.592;7.180;2023-02-28T01:21:24;0.80;99.90
37956;DHT22;23776;51.592;7.180;2023-02-28T01:23:51;0.90;1.00
37956;DHT22;23776;51.592;7.180;2023-02-28T01:26:21;0.90;1.00
37956;DHT22;23776;51.592;7.180;2023-02-28T01:28:48;0.90;1.00
37956;DHT22;23776;51.592;7.180;2023-02-28T01:31:15;0.90;1.00
37956;DHT22;23776;51.592;7.180;2023-02-28T01:33:41;0.90;1.00
37956;DHT22;23776;51.592;7.180;2023-02-28T01:36:12;0.90;99.90
37956;DHT22;23776;51.592;7.180;2023-02-28T01:38:38;0.90;1.00
37956;DHT22;23776;51.592;7.180;2023-02-28T01:41:05;0.90;99.90
37956;DHT22;23776;51.592;7.180;2023-02-28T01:46:07;0.80;99.90
37956;DHT22;23776;51.592;7.180;2023-02-28T01:48:36;0.80;1.00
37956;DHT22;23776;51.592;7.180;2023-02-28T01:51:07;0.80;1.00
37956;DHT22;23776;51.592;7.180;2023-02-28T01:53:41;0.80;87.00
37956;DHT22;23776;51.592;7.180;2023-02-28T01:56:11;0.80;99.90
37956;DHT22;23776;51.592;7.180;2023-02-28T01:58:47;0.90;99.90
37956;DHT22;23776;51.592;7.180;2023-02-28T02:01:13;0.80;99.90
37956;DHT22;23776;51.592;7.180;2023-02-28T02:03:47;0.80;99.90
37956;DHT22;23776;51.592;7.180;2023-02-28T02:06:13;0.80;99.90
37956;DHT22;23776;51.592;7.180;2023-02-28T02:08:39;0.70;99.90
37956;DHT22;23776;51.592;7.180;2023-02-28T02:11:07;0.60;99.90
37956;DHT22;23776;51.592;7.180;2023-02-28T02:16:40;0.50;1.00
37956;DHT22;23776;51.592;7.180;2023-02-28T02:19:43;0.40;76.20
37956;DHT22;23776;51.592;7.180;2023-02-28T02:22:38;0.30;20.80
37956;DHT22;23776;51.592;7.180;2023-02-28T02:28:51;0.40;99.90
37956;DHT22;23776;51.592;7.180;2023-02-28T02:39:51;0.20;99.90
37956;DHT22;23776;51.592;7.180;2023-02-28T02:42:26;1.90;99.90
37956;DHT22;23776;51.592;7.180;2023-02-28T02:45:00;0.20;99.90
37956;DHT22;23776;51.592;7.180;2023-02-28T02:47:27;0.10;99.90
37956;DHT22;23776;51.592;7.180;2023-02-28T02:49:57;0.10;99.90
37956;DHT22;23776;51.592;7.180;2023-02-28T02:52:32;0.10;99.90
37956;DHT22;23776;51.592;7.180;2023-02-28T02:54:59;0.10;99.90
37956;DHT22;23776;51.592;7.180;2023-02-28T02:57:37;0.10;99.90
37956;DHT22;23776;51.592;7.180;2023-02-28T03:00:05;0.10;99.90
37956;DHT22;23776;51.592;7.180;2023-02-28T03:02:36;0.10;99.90
37956;DHT22;23776;51.592;7.180;2023-02-28T03:05:08;0.10;99.90
37956;DHT22;23776;51.592;7.180;2023-02-28T03:07:34;0.10;99.90
37956;DHT22;23776;51.592;7.180;2023-02-28T03:10:00;0.10;99.90
37956;DHT22;23776;51.592;7.180;2023-02-28T03:12:49;0.00;99.90
37956;DHT22;23776;51.592;7.180;2023-02-28T03:15:27;0.00;99.90
37956;DHT22;23776;51.592;7.180;2023-02-28T03:18:03;0.00;99.90
37956;DHT22;23776;51.592;7.180;2023-02-28T03:23:17;0.00;99.90
37956;DHT22;23776;51.592;7.180;2023-02-28T03:29:07;1.00;99.90
37956;DHT22;23776;51.592;7.180;2023-02-28T03:34:33;-0.10;99.90
37956;DHT22;23776;51.592;7.180;2023-02-28T03:37:09;-0.10;99.90
37956;DHT22;23776;51.592;7.180;2023-02-28T03:39:43;-0.20;99.90
37956;DHT22;23776;51.592;7.180;2023-02-28T03:42:10;-0.20;99.90
37956;DHT22;23776;51.592;7.180;2023-02-28T03:44:44;-0.20;99.90
37956;DHT22;23776;51.592;7.180;2023-02-28T03:47:22;-0.20;94.70
37956;DHT22;23776;51.592;7.180;2023-02-28T03:49:53;-0.20;99.90
37956;DHT22;23776;51.592;7.180;2023-02-28T03:52:23;-0.10;99.90
37956;DHT22;23776;51.592;7.180;2023-02-28T03:54:56;2.20;69.60
37956;DHT22;23776;51.592;7.180;2023-02-28T03:57:27;-0.20;95.60
37956;DHT22;23776;51.592;7.180;2023-02-28T04:00:00;-0.20;4.50
37956;DHT22;23776;51.592;7.180;2023-02-28T04:02:31;-0.20;7.90
37956;DHT22;23776;51.592;7.180;2023-02-28T04:04:57;0.00;1.00
37956;DHT22;23776;51.592;7.180;2023-02-28T04:07:23;-0.10;38.70
37956;DHT22;23776;51.592;7.180;2023-02-28T04:09:48;-0.10;1.00
37956;DHT22;23776;51.592;7.180;2023-02-28T04:12:14;-0.20;1.00
37956;DHT22;23776;51.592;7.180;2023-02-28T04:14:40;-0.20;1.00
37956;DHT22;23776;51.592;7.180;2023-02-28T04:17:05;-0.30;1.00
37956;DHT22;23776;51.592;7.180;2023-02-28T04:19:31;-0.30;1.00
37956;DHT22;23776;51.592;7.180;2023-02-28T04:21:56;-0.30;1.00
37956;DHT22;23776;51.592;7.180;2023-02-28T04:24:27;-0.30;1.00
37956;DHT22;23776;51.592;7.180;2023-02-28T04:26:55;-0.30;1.00
37956;DHT22;23776;51.592;7.180;2023-02-28T04:31:51;-0.40;99.90
37956;DHT22;23776;51.592;7.180;2023-02-28T04:34:18;-0.30;99.90
37956;DHT22;23776;51.592;7.180;2023-02-28T04:36:45;-0.40;99.90
37956;DHT22;23776;51.592;7.180;2023-02-28T04:41:37;-0.40;99.90
37956;DHT22;23776;51.592;7.180;2023-02-28T04:44:03;-0.40;1.00
37956;DHT22;23776;51.592;7.180;2023-02-28T04:46:29;-0.30;99.90
37956;DHT22;23776;51.592;7.180;2023-02-28T04:48:55;-0.40;99.90
37956;DHT22;23776;51.592;7.180;2023-02-28T04:51:21;-0.40;99.90
37956;DHT22;23776;51.592;7.180;2023-02-28T04:53:47;-0.40;99.90
37956;DHT22;23776;51.592;7.180;2023-02-28T04:56:15;-0.50;99.90
37956;DHT22;23776;51.592;7.180;2023-02-28T04:58:42;-0.50;99.90
37956;DHT22;23776;51.592;7.180;2023-02-28T05:01:28;-0.50;99.90
37956;DHT22;23776;51.592;7.180;2023-02-28T05:03:56;-0.40;99.90
37956;DHT22;23776;51.592;7.180;2023-02-28T05:06:24;-0.40;99.90
37956;DHT22;23776;51.592;7.180;2023-02-28T05:08:50;-0.50;99.90
37956;DHT22;23776;51.592;7.180;2023-02-28T05:11:29;-0.50;99.90
37956;DHT22;23776;51.592;7.180;2023-02-28T05:14:00;-0.50;99.90
37956;DHT22;23776;51.592;7.180;2023-02-28T05:16:26;-0.50;99.90
37956;DHT22;23776;51.592;7.180;2023-02-28T05:18:52;-0.50;63.90
37956;DHT22;23776;51.592;7.180;2023-02-28T05:23:49;-0.50;99.90
37956;DHT22;23776;51.592;7.180;2023-02-28T05:26:15;-0.50;99.90
37956;DHT22;23776;51.592;7.180;2023-02-28T05:28:40;-0.50;99.90
37956;DHT22;23776;51.592;7.180;2023-02-28T05:31:07;-0.50;99.90
37956;DHT22;23776;51.592;7.180;2023-02-28T05:33:33;-0.50;99.90
37956;DHT22;23776;51.592;7.180;2023-02-28T05:35:58;-0.50;99.90
37956;DHT22;23776;51.592;7.180;2023-02-28T05:38:24;-0.50;99.90
37956;DHT22;23776;51.592;7.180;2023-02-28T05:40:49;-0.60;99.90
37956;DHT22;23776;51.592;7.180;2023-02-28T05:43:15;-0.50;99.90
37956;DHT22;23776;51.592;7.180;2023-02-28T05:45:41;-0.60;99.90
37956;DHT22;23776;51.592;7.180;2023-02-28T05:48:07;-0.60;99.90
37956;DHT22;23776;51.592;7.180;2023-02-28T05:50:33;-0.50;1.00
37956;DHT22;23776;51.592;7.180;2023-02-28T05:52:58;-0.50;1.00
37956;DHT22;23776;51.592;7.180;2023-02-28T05:55:24;-0.60;1.00
37956;DHT22;23776;51.592;7.180;2023-02-28T05:57:49;-0.60;1.00
37956;DHT22;23776;51.592;7.180;2023-02-28T06:00:15;-0.60;1.00
37956;DHT22;23776;51.592;7.180;2023-02-28T06:02:43;-0.60;1.00
37956;DHT22;23776;51.592;7.180;2023-02-28T06:05:17;-1.90;1.00
37956;DHT22;23776;51.592;7.180;2023-02-28T06:07:43;-0.60;1.00
37956;DHT22;23776;51.592;7.180;2023-02-28T06:10:10;-0.60;1.00
37956;DHT22;23776;51.592;7.180;2023-02-28T06:12:37;-0.60;1.00
37956;DHT22;23776;51.592;7.180;2023-02-28T06:15:03;-0.60;1.20
37956;DHT22;23776;51.592;7.180;2023-02-28T06:17:29;-0.60;1.00
37956;DHT22;23776;51.592;7.180;2023-02-28T06:19:55;-0.60;1.00
37956;DHT22;23776;51.592;7.180;2023-02-28T06:22:20;-0.60;1.00
37956;DHT22;23776;51.592;7.180;2023-02-28T06:24:46;-0.70;1.00
37956;DHT22;23776;51.592;7.180;2023-02-28T06:27:11;-0.70;1.00
37956;DHT22;23776;51.592;7.180;2023-02-28T06:29:37;-0.70;1.00
37956;DHT22;23776;51.592;7.180;2023-02-28T06:32:05;-0.70;39.10
37956;DHT22;23776;51.592;7.180;2023-02-28T06:34:31;-0.70;99.90
37956;DHT22;23776;51.592;7.180;2023-02-28T06:36:59;0.00;99.90
37956;DHT22;23776;51.592;7.180;2023-02-28T06:39:28;-0.60;97.30
37956;DHT22;23776;51.592;7.180;2023-02-28T06:41:54;-0.50;63.00
37956;DHT22;23776;51.592;7.180;2023-02-28T06:44:20;-0.50;10.30
37956;DHT22;23776;51.592;7.180;2023-02-28T06:46:46;-0.60;24.60
37956;DHT22;23776;51.592;7.180;2023-02-28T06:49:11;-0.60;8.40
37956;DHT22;23776;51.592;7.180;2023-02-28T06:51:39;-0.60;1.00
37956;DHT22;23776;51.592;7.180;2023-02-28T06:54:05;-0.60;1.00
37956;DHT22;23776;51.592;7.180;2023-02-28T06:56:35;-0.50;1.00
37956;DHT22;23776;51.592;7.180;2023-02-28T06:59:00;-0.50;1.00
37956;DHT22;23776;51.592;7.180;2023-02-28T07:01:26;-0.50;33.70
37956;DHT22;23776;51.592;7.180;2023-02-28T07:03:54;-0.50;96.90
37956;DHT22;23776;51.592;7.180;2023-02-28T07:06:21;-0.40;99.90
37956;DHT22;23776;51.592;7.180;2023-02-28T07:08:51;-0.40;68.30
37956;DHT22;23776;51.592;7.180;2023-02-28T07:11:18;-0.30;99.90
37956;DHT22;23776;51.592;7.180;2023-02-28T07:13:44;-0.30;99.90
37956;DHT22;23776;51.592;7.180;2023-02-28T07:16:11;-0.40;66.70
37956;DHT22;23776;51.592;7.180;2023-02-28T07:18:37;-0.30;94.10
37956;DHT22;23776;51.592;7.180;2023-02-28T07:21:05;-0.30;99.90
37956;DHT22;23776;51.592;7.180;2023-02-28T07:23:31;-0.30;95.90
37956;DHT22;23776;51.592;7.180;2023-02-28T07:25:57;-0.30;99.90
37956;DHT22;23776;51.592;7.180;2023-02-28T07:28:22;-0.10;99.90
37956;DHT22;23776;51.592;7.180;2023-02-28T07:30:48;-0.10;52.50
37956;DHT22;23776;51.592;7.180;2023-02-28T07:33:14;0.00;1.00
37956;DHT22;23776;51.592;7.180;2023-02-28T07:35:39;0.00;1.00
37956;DHT22;23776;51.592;7.180;2023-02-28T07:38:05;0.10;1.00
37956;DHT22;23776;51.592;7.180;2023-02-28T07:40:33;0.20;99.90
37956;DHT22;23776;51.592;7.180;2023-02-28T07:43:00;0.20;99.90
37956;DHT22;23776;51.592;7.180;2023-02-28T07:45:26;0.30;23.60
37956;DHT22;23776;51.592;7.180;2023-02-28T07:47:51;0.30;1.00
37956;DHT22;23776;51.592;7.180;2023-02-28T07:50:17;0.40;99.90
37956;DHT22;23776;51.592;7.180;2023-02-28T07:52:43;0.50;1.00
37956;DHT22;23776;51.592;7.180;2023-02-28T07:55:09;0.60;99.90
37956;DHT22;23776;51.592;7.180;2023-02-28T07:57:35;-1.20;15.10
37956;DHT22;23776;51.592;7.180;2023-02-28T08:00:01;0.80;99.90
37956;DHT22;23776;51.592;7.180;2023-02-28T08:02:28;0.90;1.00
37956;DHT22;23776;51.592;7.180;2023-02-28T08:04:54;1.00;1.00
37956;DHT22;23776;51.592;7.180;2023-02-28T08:07:19;1.10;99.90
37956;DHT22;23776;51.592;7.180;2023-02-28T08:09:45;1.20;1.00
37956;DHT22;23776;51.592;7.180;2023-02-28T08:12:11;1.20;99.90
37956;DHT22;23776;51.592;7.180;2023-02-28T08:14:37;1.20;1.00
37956;DHT22;23776;51.592;7.180;2023-02-28T08:17:03;1.20;1.00
37956;DHT22;23776;51.592;7.180;2023-02-28T08:19:29;1.30;1.00
37956;DHT22;23776;51.592;7.180;2023-02-28T08:21:55;3.00;99.90
37956;DHT22;23776;51.592;7.180;2023-02-28T08:24:21;1.40;99.90
37956;DHT22;23776;51.592;7.180;2023-02-28T08:26:47;1.50;99.90
37956;DHT22;23776;51.592;7.180;2023-02-28T08:29:12;1.60;1.00
37956;DHT22;23776;51.592;7.180;2023-02-28T08:31:38;1.60;1.00
37956;DHT22;23776;51.592;7.180;2023-02-28T08:34:08;1.60;1.00
37956;DHT22;23776;51.592;7.180;2023-02-28T08:36:34;1.70;1.00
37956;DHT22;23776;51.592;7.180;2023-02-28T08:39:00;1.70;1.00
37956;DHT22;23776;51.592;7.180;2023-02-28T08:41:26;1.80;1.00
37956;DHT22;23776;51.592;7.180;2023-02-28T08:43:52;1.80;1.00
37956;DHT22;23776;51.592;7.180;2023-02-28T08:46:19;1.90;1.00
37956;DHT22;23776;51.592;7.180;2023-02-28T08:48:44;1.90;1.00
37956;DHT22;23776;51.592;7.180;2023-02-28T08:51:14;2.00;1.00
37956;DHT22;23776;51.592;7.180;2023-02-28T08:53:41;2.10;1.00
37956;DHT22;23776;51.592;7.180;2023-02-28T08:56:12;2.20;99.90
37956;DHT22;23776;51.592;7.180;2023-02-28T08:58:38;2.30;99.90
37956;DHT22;23776;51.592;7.180;2023-02-28T09:01:12;2.50;99.90
37956;DHT22;23776;51.592;7.180;2023-02-28T09:03:38;2.40;99.90
37956;DHT22;23776;51.592;7.180;2023-02-28T09:06:04;2.50;99.90
37956;DHT22;23776;51.592;7.180;2023-02-28T09:08:30;2.50;1.00
37956;DHT22;23776;51.592;7.180;2023-02-28T09:10:57;2.60;1.00
37956;DHT22;23776;51.592;7.180;2023-02-28T09:13:24;2.70;1.00
37956;DHT22;23776;51.592;7.180;2023-02-28T09:15:51;2.70;1.00
37956;DHT22;23776;51.592;7.180;2023-02-28T09:18:16;2.70;99.90
37956;DHT22;23776;51.592;7.180;2023-02-28T09:20:43;2.70;99.90
37956;DHT22;23776;51.592;7.180;2023-02-28T09:23:10;2.80;99.90
37956;DHT22;23776;51.592;7.180;2023-02-28T09:25:36;2.80;99.90
37956;DHT22;23776;51.592;7.180;2023-02-28T09:28:03;2.90;99.90
37956;DHT22;23776;51.592;7.180;2023-02-28T09:30:30;3.00;99.90
37956;DHT22;23776;51.592;7.180;2023-02-28T09:32:55;3.10;99.90
37956;DHT22;23776;51.592;7.180;2023-02-28T09:35:22;3.20;99.90
37956;DHT22;23776;51.592;7.180;2023-02-28T09:37:50;4.20;99.90
37956;DHT22;23776;51.592;7.180;2023-02-28T09:40:20;3.40;99.90
37956;DHT22;23776;51.592;7.180;2023-02-28T09:42:48;3.40;99.90
37956;DHT22;23776;51.592;7.180;2023-02-28T09:47:47;3.60;99.90
37956;DHT22;23776;51.592;7.180;2023-02-28T09:50:34;1.80;83.20
37956;DHT22;23776;51.592;7.180;2023-02-28T09:53:15;3.80;71.20
37956;DHT22;23776;51.592;7.180;2023-02-28T09:55:48;3.90;28.60
37956;DHT22;23776;51.592;7.180;2023-02-28T09:58:51;3.90;1.00
37956;DHT22;23776;51.592;7.180;2023-02-28T10:04:03;4.00;1.00
37956;DHT22;23776;51.592;7.180;2023-02-28T10:06:53;4.10;1.00
37956;DHT22;23776;51.592;7.180;2023-02-28T10:09:26;4.30;1.00
37956;DHT22;23776;51.592;7.180;2023-02-28T10:11:57;4.50;1.00
37956;DHT22;23776;51.592;7.180;2023-02-28T10:14:28;4.50;1.00
37956;DHT22;23776;51.592;7.180;2023-02-28T10:16:58;4.70;1.00
37956;DHT22;23776;51.592;7.180;2023-02-28T10:19:29;4.80;1.00
37956;DHT22;23776;51.592;7.180;2023-02-28T10:22:14;4.90;1.00
37956;DHT22;23776;51.592;7.180;2023-02-28T10:24:47;6.40;1.00
37956;DHT22;23776;51.592;7.180;2023-02-28T10:27:25;4.90;1.00
37956;DHT22;23776;51.592;7.180;2023-02-28T10:29:53;5.10;1.00
37956;DHT22;23776;51.592;7.180;2023-02-28T10:32:22;5.20;1.00
37956;DHT22;23776;51.592;7.180;2023-02-28T10:37:41;5.50;99.90
37956;DHT22;23776;51.592;7.180;2023-02-28T10:40:29;5.70;99.90
37956;DHT22;23776;51.592;7.180;2023-02-28T10:45:24;6.30;99.90
37956;DHT22;23776;51.592;7.180;2023-02-28T10:47:59;6.80;99.90
37956;DHT22;23776;51.592;7.180;2023-02-28T10:56:05;8.70;99.90
37956;DHT22;23776;51.592;7.180;2023-02-28T11:01:35;8.60;99.90
37956;DHT22;23776;51.592;7.180;2023-02-28T11:04:02;8.00;99.90
37956;DHT22;23776;51.592;7.180;2023-02-28T11:06:33;8.00;99.90
37956;DHT22;23776;51.592;7.180;2023-02-28T11:09:02;8.10;99.90
37956;DHT22;23776;51.592;7.180;2023-02-28T11:11:29;8.40;99.90
37956;DHT22;23776;51.592;7.180;2023-02-28T11:14:03;9.10;99.90
37956;DHT22;23776;51.592;7.180;2023-02-28T11:16:34;9.90;99.90
37956;DHT22;23776;51.592;7.180;2023-02-28T11:19:02;10.30;99.90
37956;DHT22;23776;51.592;7.180;2023-02-28T11:21:34;10.50;99.90
37956;DHT22;23776;51.592;7.180;2023-02-28T11:24:24;11.10;99.90
37956;DHT22;23776;51.592;7.180;2023-02-28T11:26:51;11.60;99.90
37956;DHT22;23776;51.592;7.180;2023-02-28T11:29:21;12.30;99.90
37956;DHT22;23776;51.592;7.180;2023-02-28T11:34:37;13.00;99.90
37956;DHT22;23776;51.592;7.180;2023-02-28T11:37:04;13.50;99.90
37956;DHT22;23776;51.592;7.180;2023-02-28T11:39:32;13.60;99.90
37956;DHT22;23776;51.592;7.180;2023-02-28T11:44:53;13.10;99.90
37956;DHT22;23776;51.592;7.180;2023-02-28T11:47:35;13.20;99.90
37956;DHT22;23776;51.592;7.180;2023-02-28T11:50:42;12.80;99.90
37956;DHT22;23776;51.592;7.180;2023-02-28T12:01:33;14.30;99.90
37956;DHT22;23776;51.592;7.180;2023-02-28T12:07:00;14.90;99.90
37956;DHT22;23776;51.592;7.180;2023-02-28T12:15:32;14.30;99.90
37956;DHT22;23776;51.592;7.180;2023-02-28T12:26:34;15.20;99.90
37956;DHT22;23776;51.592;7.180;2023-02-28T12:32:09;15.50;99.90
37956;DHT22;23776;51.592;7.180;2023-02-28T12:37:37;17.50;99.90
37956;DHT22;23776;51.592;7.180;2023-02-28T12:40:16;15.80;99.90
37956;DHT22;23776;51.592;7.180;2023-02-28T12:42:46;15.90;99.90
37956;DHT22;23776;51.592;7.180;2023-02-28T12:45:19;15.90;99.90
37956;DHT22;23776;51.592;7.180;2023-02-28T12:47:50;16.10;99.90
37956;DHT22;23776;51.592;7.180;2023-02-28T12:50:19;15.50;99.90
37956;DHT22;23776;51.592;7.180;2023-02-28T12:53:03;15.00;99.90
37956;DHT22;23776;51.592;7.180;2023-02-28T13:09:25;13.20;99.90
37956;DHT22;23776;51.592;7.180;2023-02-28T13:11:52;10.80;99.90
37956;DHT22;23776;51.592;7.180;2023-02-28T13:19:41;10.10;99.90
37956;DHT22;23776;51.592;7.180;2023-02-28T13:27:50;9.50;99.90
37956;DHT22;23776;51.592;7.180;2023-02-28T13:39:01;9.80;99.90
37956;DHT22;23776;51.592;7.180;2023-02-28T13:44:19;9.80;99.90
37956;DHT22;23776;51.592;7.180;2023-02-28T14:08:56;11.20;99.90
37956;DHT22;23776;51.592;7.180;2023-02-28T14:11:34;11.10;99.90
37956;DHT22;23776;51.592;7.180;2023-02-28T14:14:00;10.90;99.90
37956;DHT22;23776;51.592;7.180;2023-02-28T14:16:44;10.30;99.90
37956;DHT22;23776;51.592;7.180;2023-02-28T14:19:20;10.20;99.90
37956;DHT22;23776;51.592;7.180;2023-02-28T14:22:01;10.10;99.90
37956;DHT22;23776;51.592;7.180;2023-02-28T14:30:37;10.40;99.90
37956;DHT22;23776;51.592;7.180;2023-02-28T14:38:33;10.50;99.90
37956;DHT22;23776;51.592;7.180;2023-02-28T14:41:04;10.40;99.90
37956;DHT22;23776;51.592;7.180;2023-02-28T14:43:32;10.40;99.90
37956;DHT22;23776;51.592;7.180;2023-02-28T14:46:02;10.60;99.90
37956;DHT22;23776;51.592;7.180;2023-02-28T14:48:29;10.60;99.90
37956;DHT22;23776;51.592;7.180;2023-02-28T14:50:58;10.70;99.90
37956;DHT22;23776;51.592;7.180;2023-02-28T14:53:28;10.60;99.90
37956;DHT22;23776;51.592;7.180;2023-02-28T14:55:54;10.60;99.90
37956;DHT22;23776;51.592;7.180;2023-02-28T14:58:32;10.70;99.90
37956;DHT22;23776;51.592;7.180;2023-02-28T15:00:59;10.90;99.90
37956;DHT22;23776;51.592;7.180;2023-02-28T15:03:36;10.40;99.90
37956;DHT22;23776;51.592;7.180;2023-02-28T15:06:12;10.40;99.90
37956;DHT22;23776;51.592;7.180;2023-02-28T15:08:38;10.30;99.90
37956;DHT22;23776;51.592;7.180;2023-02-28T15:11:16;10.10;99.90
37956;DHT22;23776;51.592;7.180;2023-02-28T15:13:46;9.80;99.90
37956;DHT22;23776;51.592;7.180;2023-02-28T15:18:52;9.40;99.90
37956;DHT22;23776;51.592;7.180;2023-02-28T15:21:40;9.10;99.90
37956;DHT22;23776;51.592;7.180;2023-02-28T15:26:54;8.30;99.90
37956;DHT22;23776;51.592;7.180;2023-02-28T15:29:23;7.90;99.90
37956;DHT22;23776;51.592;7.180;2023-02-28T15:32:00;7.70;99.90
37956;DHT22;23776;51.592;7.180;2023-02-28T15:34:34;7.50;99.90
37956;DHT22;23776;51.592;7.180;2023-02-28T15:37:00;7.40;99.90
37956;DHT22;23776;51.592;7.180;2023-02-28T15:39:27;7.20;99.90
37956;DHT22;23776;51.592;7.180;2023-02-28T15:42:18;7.00;99.90
37956;DHT22;23776;51.592;7.180;2023-02-28T15:44:44;6.90;99.90
37956;DHT22;23776;51.592;7.180;2023-02-28T15:47:22;6.80;99.90
37956;DHT22;23776;51.592;7.180;2023-02-28T15:52:21;6.70;99.90
37956;DHT22;23776;51.592;7.180;2023-02-28T15:54:48;6.60;99.90
37956;DHT22;23776;51.592;7.180;2023-02-28T15:57:22;6.60;99.90
37956;DHT22;23776;51.592;7.180;2023-02-28T16:00:01;6.50;99.90
37956;DHT22;23776;51.592;7.180;2023-02-28T16:02:35;6.50;99.90
37956;DHT22;23776;51.592;7.180;2023-02-28T16:05:18;6.40;99.90
37956;DHT22;23776;51.592;7.180;2023-02-28T16:07:45;6.30;99.90
37956;DHT22;23776;51.592;7.180;2023-02-28T16:10:13;6.20;99.90
37956;DHT22;23776;51.592;7.180;2023-02-28T16:12:42;6.20;99.90
37956;DHT22;23776;51.592;7.180;2023-02-28T16:15:31;6.00;99.90
37956;DHT22;23776;51.592;7.180;2023-02-28T16:17:56;6.10;99.90
37956;DHT22;23776;51.592;7.180;2023-02-28T16:20:27;6.00;99.90
37956;DHT22;23776;51.592;7.180;2023-02-28T16:22:53;5.90;99.90
37956;DHT22;23776;51.592;7.180;2023-02-28T16:25:33;5.90;99.90
37956;DHT22;23776;51.592;7.180;2023-02-28T16:28:00;5.80;99.90
37956;DHT22;23776;51.592;7.180;2023-02-28T16:30:27;5.80;99.90
37956;DHT22;23776;51.592;7.180;2023-02-28T16:32:55;5.80;99.90
37956;DHT22;23776;51.592;7.180;2023-02-28T16:35:21;5.70;99.90
37956;DHT22;23776;51.592;7.180;2023-02-28T16:37:47;5.80;99.90
37956;DHT22;23776;51.592;7.180;2023-02-28T16:40:15;5.70;99.90
37956;DHT22;23776;51.592;7.180;2023-02-28T16:42:41;5.70;99.90
37956;DHT22;23776;51.592;7.180;2023-02-28T16:45:16;5.70;99.90
37956;DHT22;23776;51.592;7.180;2023-02-28T16:47:43;5.70;99.90
37956;DHT22;23776;51.592;7.180;2023-02-28T16:50:26;5.60;99.90
37956;DHT22;23776;51.592;7.180;2023-02-28T16:52:52;5.50;99.90
37956;DHT22;23776;51.592;7.180;2023-02-28T16:55:18;5.50;99.90
37956;DHT22;23776;51.592;7.180;2023-02-28T16:57:52;5.40;99.90
37956;DHT22;23776;51.592;7.180;2023-02-28T17:00:18;5.40;99.90
37956;DHT22;23776;51.592;7.180;2023-02-28T17:02:44;5.40;99.90
37956;DHT22;23776;51.592;7.180;2023-02-28T17:05:13;5.30;99.90
37956;DHT22;23776;51.592;7.180;2023-02-28T17:07:40;5.30;99.90
37956;DHT22;23776;51.592;7.180;2023-02-28T17:10:14;5.20;99.90
37956;DHT22;23776;51.592;7.180;2023-02-28T17:12:40;5.10;99.90
37956;DHT22;23776;51.592;7.180;2023-02-28T17:15:06;5.00;99.90
37956;DHT22;23776;51.592;7.180;2023-02-28T17:17:32;5.00;99.90
37956;DHT22;23776;51.592;7.180;2023-02-28T17:19:58;5.00;1.00
37956;DHT22;23776;51.592;7.180;2023-02-28T17:22:23;5.00;1.00
37956;DHT22;23776;51.592;7.180;2023-02-28T17:24:51;4.90;1.00
37956;DHT22;23776;51.592;7.180;2023-02-28T17:27:17;4.90;1.00
37956;DHT22;23776;51.592;7.180;2023-02-28T17:29:42;5.00;1.00
37956;DHT22;23776;51.592;7.180;2023-02-28T17:32:08;5.00;99.90
37956;DHT22;23776;51.592;7.180;2023-02-28T17:34:33;4.90;72.60
37956;DHT22;23776;51.592;7.180;2023-02-28T17:36:59;4.90;1.00
37956;DHT22;23776;51.592;7.180;2023-02-28T17:39:24;4.80;1.00
37956;DHT22;23776;51.592;7.180;2023-02-28T17:41:54;4.80;1.00
37956;DHT22;23776;51.592;7.180;2023-02-28T17:44:21;4.70;10.80
37956;DHT22;23776;51.592;7.180;2023-02-28T17:46:47;4.60;1.00
37956;DHT22;23776;51.592;7.180;2023-02-28T17:49:14;4.60;1.00
37956;DHT22;23776;51.592;7.180;2023-02-28T17:51:40;4.50;8.40
37956;DHT22;23776;51.592;7.180;2023-02-28T17:54:05;4.40;1.00
37956;DHT22;23776;51.592;7.180;2023-02-28T17:56:31;4.40;99.90
37956;DHT22;23776;51.592;7.180;2023-02-28T17:58:57;4.40;99.90
37956;DHT22;23776;51.592;7.180;2023-02-28T18:01:24;4.40;99.90
37956;DHT22;23776;51.592;7.180;2023-02-28T18:03:51;4.30;99.90
37956;DHT22;23776;51.592;7.180;2023-02-28T18:06:25;4.30;99.90
37956;DHT22;23776;51.592;7.180;2023-02-28T18:08:53;4.20;99.90
37956;DHT22;23776;51.592;7.180;2023-02-28T18:11:20;4.20;95.20
37956;DHT22;23776;51.592;7.180;2023-02-28T18:13:51;4.20;99.90
37956;DHT22;23776;51.592;7.180;2023-02-28T18:16:18;4.20;99.90
37956;DHT22;23776;51.592;7.180;2023-02-28T18:18:44;4.20;99.90
37956;DHT22;23776;51.592;7.180;2023-02-28T18:21:12;4.20;99.90
37956;DHT22;23776;51.592;7.180;2023-02-28T18:23:39;4.10;99.90
37956;DHT22;23776;51.592;7.180;2023-02-28T18:26:12;4.00;99.90
37956;DHT22;23776;51.592;7.180;2023-02-28T18:28:39;4.00;99.90
37956;DHT22;23776;51.592;7.180;2023-02-28T18:31:07;4.00;99.90
37956;DHT22;23776;51.592;7.180;2023-02-28T18:33:33;3.90;99.90
37956;DHT22;23776;51.592;7.180;2023-02-28T18:35:59;3.90;99.90
37956;DHT22;23776;51.592;7.180;2023-02-28T18:38:25;3.80;99.90
37956;DHT22;23776;51.592;7.180;2023-02-28T18:40:56;3.80;99.90
37956;DHT22;23776;51.592;7.180;2023-02-28T18:43:24;3.70;99.90
37956;DHT22;23776;51.592;7.180;2023-02-28T18:45:50;3.70;99.90